San Bernardino International Airport San Bernardino US
ICAO: KSBD
IATA: SBD
Category: Medium
Scheduled Services: No

Elevation: 1159 ft
TransAlt. 18000 ft.

Airport Communications:
SOCAL APP/DEP:119.65
TANKER BASE:123.975
CTAF/UNICOM:122.975

KSBD Zoom In..

If you have problems with the map follow the link
https://www.worldairports.se/pages/airport.php?
ICAO=KSBD

Runways:

(A) RW 06 length 10000 ft width 200 ft
ILS 109.30 / hdg 57

(B) RW 24 length 10000 ft width 200 ft
---- / hdg 237

Location; KSBD
Day. 26 / Time. 02.50 Zulu
* Altimeter: 30.07
* Temperature: 18° c. 64.4°f.
* Wind from: 000° Speed 00 kn.
Dewpoint: 08° c.
Visibility: 10 Statute Miles.
Clouds: Overcast 15000 ft.

KSBD 260250Z 00000KT 10SM OVC150 18/08 A3007


Wind - Calm.

 
 
jpsmedia worldairports.se 2020   terms of use